sensor_id;sensor_type;location;lat;lon;timestamp;pressure;altitude;pressure_sealevel;temperature;humidity
20696;BME280;10507;52.754;13.040;2024-03-07T00:02:20;102034.44;;;5.55;100.00
20696;BME280;10507;52.754;13.040;2024-03-07T00:04:46;102038.91;;;5.50;100.00
20696;BME280;10507;52.754;13.040;2024-03-07T00:07:13;102038.88;;;5.55;100.00
20696;BME280;10507;52.754;13.040;2024-03-07T00:09:40;102045.94;;;5.54;100.00
20696;BME280;10507;52.754;13.040;2024-03-07T00:12:07;102033.63;;;5.47;100.00
20696;BME280;10507;52.754;13.040;2024-03-07T00:14:35;102053.03;;;5.51;100.00
20696;BME280;10507;52.754;13.040;2024-03-07T00:17:02;102048.56;;;5.59;100.00
20696;BME280;10507;52.754;13.040;2024-03-07T00:19:29;102035.34;;;5.53;100.00
20696;BME280;10507;52.754;13.040;2024-03-07T00:21:56;102040.66;;;5.54;100.00
20696;BME280;10507;52.754;13.040;2024-03-07T00:24:23;102046.78;;;5.59;100.00
20696;BME280;10507;52.754;13.040;2024-03-07T00:26:50;102037.06;;;5.60;100.00
20696;BME280;10507;52.754;13.040;2024-03-07T00:29:17;102035.34;;;5.53;100.00
20696;BME280;10507;52.754;13.040;2024-03-07T00:31:46;102035.38;;;5.50;100.00
20696;BME280;10507;52.754;13.040;2024-03-07T00:34:12;102035.38;;;5.47;100.00
20696;BME280;10507;52.754;13.040;2024-03-07T00:36:41;102043.34;;;5.50;100.00
20696;BME280;10507;52.754;13.040;2024-03-07T00:39:08;102045.06;;;5.49;100.00
20696;BME280;10507;52.754;13.040;2024-03-07T00:41:37;102057.38;;;5.58;100.00
20696;BME280;10507;52.754;13.040;2024-03-07T00:44:04;102045.91;;;5.59;100.00
20696;BME280;10507;52.754;13.040;2024-03-07T00:46:31;102044.16;;;5.55;100.00
20696;BME280;10507;52.754;13.040;2024-03-07T00:48:59;102038.91;;;5.49;100.00
20696;BME280;10507;52.754;13.040;2024-03-07T00:51:26;102041.53;;;5.55;100.00
20696;BME280;10507;52.754;13.040;2024-03-07T00:53:53;102037.16;;;5.48;100.00
20696;BME280;10507;52.754;13.040;2024-03-07T00:56:20;102038.94;;;5.46;100.00
20696;BME280;10507;52.754;13.040;2024-03-07T00:58:47;102044.22;;;5.52;100.00
20696;BME280;10507;52.754;13.040;2024-03-07T01:01:13;102039.78;;;5.54;100.00
20696;BME280;10507;52.754;13.040;2024-03-07T01:03:40;102032.69;;;5.54;100.00
20696;BME280;10507;52.754;13.040;2024-03-07T01:06:08;102031.00;;;5.46;100.00
20696;BME280;10507;52.754;13.040;2024-03-07T01:08:36;102038.00;;;5.54;100.00
20696;BME280;10507;52.754;13.040;2024-03-07T01:11:03;102031.88;;;5.48;100.00
20696;BME280;10507;52.754;13.040;2024-03-07T01:13:34;102021.28;;;5.45;100.00
20696;BME280;10507;52.754;13.040;2024-03-07T01:16:01;102033.63;;;5.46;100.00
20696;BME280;10507;52.754;13.040;2024-03-07T01:18:28;102032.81;;;5.39;100.00
20696;BME280;10507;52.754;13.040;2024-03-07T01:20:54;102026.59;;;5.41;100.00
20696;BME280;10507;52.754;13.040;2024-03-07T01:23:22;102033.66;;;5.41;100.00
20696;BME280;10507;52.754;13.040;2024-03-07T01:25:49;102031.94;;;5.32;100.00
20696;BME280;10507;52.754;13.040;2024-03-07T01:28:15;102038.13;;;5.34;100.00
20696;BME280;10507;52.754;13.040;2024-03-07T01:30:43;102040.75;;;5.40;100.00
20696;BME280;10507;52.754;13.040;2024-03-07T01:33:10;102028.34;;;5.42;100.00
20696;BME280;10507;52.754;13.040;2024-03-07T01:35:37;102045.94;;;5.53;100.00
20696;BME280;10507;52.754;13.040;2024-03-07T01:38:03;102027.47;;;5.42;100.00
20696;BME280;10507;52.754;13.040;2024-03-07T01:40:31;102022.22;;;5.40;100.00
20696;BME280;10507;52.754;13.040;2024-03-07T01:42:58;102027.50;;;5.40;100.00
20696;BME280;10507;52.754;13.040;2024-03-07T01:45:25;102021.34;;;5.38;100.00
20696;BME280;10507;52.754;13.040;2024-03-07T01:47:52;102018.72;;;5.34;100.00
20696;BME280;10507;52.754;13.040;2024-03-07T01:50:20;102023.97;;;5.37;100.00
20696;BME280;10507;52.754;13.040;2024-03-07T01:52:48;102031.06;;;5.36;100.00
20696;BME280;10507;52.754;13.040;2024-03-07T01:55:17;102027.47;;;5.45;100.00
20696;BME280;10507;52.754;13.040;2024-03-07T01:57:46;102023.03;;;5.42;100.00
20696;BME280;10507;52.754;13.040;2024-03-07T02:00:12;102026.56;;;5.48;100.00
20696;BME280;10507;52.754;13.040;2024-03-07T02:02:40;102009.81;;;5.44;100.00
20696;BME280;10507;52.754;13.040;2024-03-07T02:05:08;102015.97;;;5.45;100.00
20696;BME280;10507;52.754;13.040;2024-03-07T02:07:36;102007.16;;;5.42;100.00
20696;BME280;10507;52.754;13.040;2024-03-07T02:10:05;101998.31;;;5.48;100.00
20696;BME280;10507;52.754;13.040;2024-03-07T02:12:34;101998.34;;;5.45;100.00
20696;BME280;10507;52.754;13.040;2024-03-07T02:15:03;102000.06;;;5.48;100.00
20696;BME280;10507;52.754;13.040;2024-03-07T02:17:30;101994.81;;;5.43;100.00
20696;BME280;10507;52.754;13.040;2024-03-07T02:19:57;101998.38;;;5.37;100.00
20696;BME280;10507;52.754;13.040;2024-03-07T02:22:25;101996.63;;;5.36;100.00
20696;BME280;10507;52.754;13.040;2024-03-07T02:24:52;101976.31;;;5.37;100.00
20696;BME280;10507;52.754;13.040;2024-03-07T02:27:19;101980.81;;;5.26;100.00
20696;BME280;10507;52.754;13.040;2024-03-07T02:29:46;101984.34;;;5.23;100.00
20696;BME280;10507;52.754;13.040;2024-03-07T02:32:13;101980.91;;;5.12;100.00
20696;BME280;10507;52.754;13.040;2024-03-07T02:34:39;101974.78;;;5.00;100.00
20696;BME280;10507;52.754;13.040;2024-03-07T02:37:06;101979.22;;;4.92;100.00
20696;BME280;10507;52.754;13.040;2024-03-07T02:39:36;101976.63;;;4.83;100.00
20696;BME280;10507;52.754;13.040;2024-03-07T02:42:02;101976.69;;;4.74;100.00
20696;BME280;10507;52.754;13.040;2024-03-07T02:44:29;101976.72;;;4.65;100.00
20696;BME280;10507;52.754;13.040;2024-03-07T02:46:57;101977.63;;;4.54;100.00
20696;BME280;10507;52.754;13.040;2024-03-07T02:49:23;101982.94;;;4.50;100.00
20696;BME280;10507;52.754;13.040;2024-03-07T02:51:50;101991.78;;;4.43;100.00
20696;BME280;10507;52.754;13.040;2024-03-07T02:54:16;101984.75;;;4.34;100.00
20696;BME280;10507;52.754;13.040;2024-03-07T02:56:44;101995.34;;;4.31;100.00
20696;BME280;10507;52.754;13.040;2024-03-07T02:59:11;102003.25;;;4.34;100.00
20696;BME280;10507;52.754;13.040;2024-03-07T03:01:38;102003.25;;;4.34;100.00
20696;BME280;10507;52.754;13.040;2024-03-07T03:04:05;102002.38;;;4.30;100.00
20696;BME280;10507;52.754;13.040;2024-03-07T03:06:32;102013.84;;;4.35;100.00
20696;BME280;10507;52.754;13.040;2024-03-07T03:08:58;102010.31;;;4.38;100.00
20696;BME280;10507;52.754;13.040;2024-03-07T03:11:25;102010.28;;;4.43;100.00
20696;BME280;10507;52.754;13.040;2024-03-07T03:13:53;102003.22;;;4.43;100.00
20696;BME280;10507;52.754;13.040;2024-03-07T03:16:21;102001.47;;;4.44;100.00
20696;BME280;10507;52.754;13.040;2024-03-07T03:18:48;102003.22;;;4.43;100.00
20696;BME280;10507;52.754;13.040;2024-03-07T03:21:15;101995.31;;;4.40;100.00
20696;BME280;10507;52.754;13.040;2024-03-07T03:23:42;101996.19;;;4.42;100.00
20696;BME280;10507;52.754;13.040;2024-03-07T03:26:09;101990.00;;;4.37;100.00
20696;BME280;10507;52.754;13.040;2024-03-07T03:28:35;101993.56;;;4.37;100.00
20696;BME280;10507;52.754;13.040;2024-03-07T03:31:04;101991.78;;;4.36;100.00
20696;BME280;10507;52.754;13.040;2024-03-07T03:33:30;101991.81;;;4.33;100.00
20696;BME280;10507;52.754;13.040;2024-03-07T03:35:57;101993.56;;;4.37;100.00
20696;BME280;10507;52.754;13.040;2024-03-07T03:38:24;101992.66;;;4.42;100.00
20696;BME280;10507;52.754;13.040;2024-03-07T03:40:51;101997.03;;;4.50;100.00
20696;BME280;10507;52.754;13.040;2024-03-07T03:43:17;101995.28;;;4.55;100.00
20696;BME280;10507;52.754;13.040;2024-03-07T03:45:44;101993.47;;;4.61;100.00
20696;BME280;10507;52.754;13.040;2024-03-07T03:48:14;101992.59;;;4.65;100.00
20696;BME280;10507;52.754;13.040;2024-03-07T03:50:40;101996.06;;;4.73;100.00
20696;BME280;10507;52.754;13.040;2024-03-07T03:53:07;101990.78;;;4.74;100.00
20696;BME280;10507;52.754;13.040;2024-03-07T03:55:34;101984.59;;;4.77;100.00
20696;BME280;10507;52.754;13.040;2024-03-07T03:58:03;101985.47;;;4.79;100.00
20696;BME280;10507;52.754;13.040;2024-03-07T04:00:31;101971.38;;;4.80;100.00
20696;BME280;10507;52.754;13.040;2024-03-07T04:02:58;101977.50;;;4.85;100.00
20696;BME280;10507;52.754;13.040;2024-03-07T04:05:26;101966.03;;;4.82;100.00
20696;BME280;10507;52.754;13.040;2024-03-07T04:07:52;101960.75;;;4.83;100.00
20696;BME280;10507;52.754;13.040;2024-03-07T04:10:21;101964.31;;;4.82;100.00
20696;BME280;10507;52.754;13.040;2024-03-07T04:12:48;101955.50;;;4.75;100.00
20696;BME280;10507;52.754;13.040;2024-03-07T04:15:15;101964.31;;;4.76;100.00
20696;BME280;10507;52.754;13.040;2024-03-07T04:17:42;101959.03;;;4.76;100.00
20696;BME280;10507;52.754;13.040;2024-03-07T04:20:10;101959.03;;;4.74;100.00
20696;BME280;10507;52.754;13.040;2024-03-07T04:22:40;101956.41;;;4.70;100.00
20696;BME280;10507;52.754;13.040;2024-03-07T04:25:08;101958.16;;;4.72;100.00
20696;BME280;10507;52.754;13.040;2024-03-07T04:27:35;101956.34;;;4.79;100.00
20696;BME280;10507;52.754;13.040;2024-03-07T04:30:06;101951.09;;;4.76;100.00
20696;BME280;10507;52.754;13.040;2024-03-07T04:32:35;101950.25;;;4.71;100.00
20696;BME280;10507;52.754;13.040;2024-03-07T04:35:02;101952.84;;;4.80;100.00
20696;BME280;10507;52.754;13.040;2024-03-07T04:37:33;101951.06;;;4.79;100.00
20696;BME280;10507;52.754;13.040;2024-03-07T04:40:04;101942.31;;;4.71;100.00
20696;BME280;10507;52.754;13.040;2024-03-07T04:42:36;101951.13;;;4.71;100.00
20696;BME280;10507;52.754;13.040;2024-03-07T04:45:03;101961.66;;;4.79;100.00
20696;BME280;10507;52.754;13.040;2024-03-07T04:47:30;101951.97;;;4.78;100.00
20696;BME280;10507;52.754;13.040;2024-03-07T04:49:57;101946.69;;;4.73;100.00
20696;BME280;10507;52.754;13.040;2024-03-07T04:52:23;101953.72;;;4.77;100.00
20696;BME280;10507;52.754;13.040;2024-03-07T04:54:50;101945.81;;;4.76;100.00
20696;BME280;10507;52.754;13.040;2024-03-07T04:57:18;101939.63;;;4.78;100.00
20696;BME280;10507;52.754;13.040;2024-03-07T04:59:45;101923.78;;;4.71;100.00
20696;BME280;10507;52.754;13.040;2024-03-07T05:02:11;101934.34;;;4.74;100.00
20696;BME280;10507;52.754;13.040;2024-03-07T05:04:39;101944.03;;;4.78;100.00
20696;BME280;10507;52.754;13.040;2024-03-07T05:07:05;101923.78;;;4.68;100.00
20696;BME280;10507;52.754;13.040;2024-03-07T05:09:32;101922.94;;;4.63;100.00
20696;BME280;10507;52.754;13.040;2024-03-07T05:11:59;101924.72;;;4.61;100.00
20696;BME280;10507;52.754;13.040;2024-03-07T05:14:27;101923.88;;;4.54;100.00
20696;BME280;10507;52.754;13.040;2024-03-07T05:16:53;101933.53;;;4.56;100.00
20696;BME280;10507;52.754;13.040;2024-03-07T05:19:31;101930.94;;;4.53;100.00
20696;BME280;10507;52.754;13.040;2024-03-07T05:21:59;101926.53;;;4.43;100.00
20696;BME280;10507;52.754;13.040;2024-03-07T05:24:26;101938.91;;;4.44;100.00
20696;BME280;10507;52.754;13.040;2024-03-07T05:26:53;101939.78;;;4.45;100.00
20696;BME280;10507;52.754;13.040;2024-03-07T05:29:20;101942.41;;;4.45;100.00
20696;BME280;10507;52.754;13.040;2024-03-07T05:31:48;101952.09;;;4.47;100.00
20696;BME280;10507;52.754;13.040;2024-03-07T05:34:15;101944.19;;;4.41;100.00
20696;BME280;10507;52.754;13.040;2024-03-07T05:36:44;101958.28;;;4.43;100.00
20696;BME280;10507;52.754;13.040;2024-03-07T05:39:12;101954.75;;;4.43;100.00
20696;BME280;10507;52.754;13.040;2024-03-07T05:41:39;101968.00;;;4.40;100.00
20696;BME280;10507;52.754;13.040;2024-03-07T05:44:07;101944.22;;;4.32;100.00
20696;BME280;10507;52.754;13.040;2024-03-07T05:46:35;101960.09;;;4.29;100.00
20696;BME280;10507;52.754;13.040;2024-03-07T05:49:07;101957.47;;;4.24;100.00
20696;BME280;10507;52.754;13.040;2024-03-07T05:51:34;101945.16;;;4.14;100.00
20696;BME280;10507;52.754;13.040;2024-03-07T05:54:01;101953.97;;;4.10;100.00
20696;BME280;10507;52.754;13.040;2024-03-07T05:56:32;101961.91;;;4.05;100.00
20696;BME280;10507;52.754;13.040;2024-03-07T05:59:01;101968.97;;;4.00;100.00
20696;BME280;10507;52.754;13.040;2024-03-07T06:01:29;101968.97;;;4.00;100.00
20696;BME280;10507;52.754;13.040;2024-03-07T06:03:58;101975.13;;;3.96;100.00
20696;BME280;10507;52.754;13.040;2024-03-07T06:06:26;101977.78;;;3.96;100.00
20696;BME280;10507;52.754;13.040;2024-03-07T06:08:53;101997.13;;;4.06;100.00
20696;BME280;10507;52.754;13.040;2024-03-07T06:11:19;101976.88;;;3.99;100.00
20696;BME280;10507;52.754;13.040;2024-03-07T06:13:47;101992.75;;;4.02;100.00
20696;BME280;10507;52.754;13.040;2024-03-07T06:16:14;101993.59;;;4.05;100.00
20696;BME280;10507;52.754;13.040;2024-03-07T06:18:40;101983.94;;;4.03;100.00
20696;BME280;10507;52.754;13.040;2024-03-07T06:21:07;101996.25;;;4.11;100.00
20696;BME280;10507;52.754;13.040;2024-03-07T06:23:36;101996.22;;;4.25;100.00
20696;BME280;10507;52.754;13.040;2024-03-07T06:26:03;102000.56;;;4.49;100.00
20696;BME280;10507;52.754;13.040;2024-03-07T06:28:38;102001.34;;;4.74;100.00
20696;BME280;10507;52.754;13.040;2024-03-07T06:31:05;102023.25;;;5.10;100.00
20696;BME280;10507;52.754;13.040;2024-03-07T06:33:34;102029.28;;;5.38;100.00
20696;BME280;10507;52.754;13.040;2024-03-07T06:36:01;101973.44;;;5.65;99.69
20696;BME280;10507;52.754;13.040;2024-03-07T06:38:28;101955.50;;;5.99;98.89
20696;BME280;10507;52.754;13.040;2024-03-07T06:40:56;101928.47;;;6.45;96.96
20696;BME280;10507;52.754;13.040;2024-03-07T06:43:22;101850.84;;;6.29;95.36
20696;BME280;10507;52.754;13.040;2024-03-07T06:45:49;101853.91;;;6.66;94.25
20696;BME280;10507;52.754;13.040;2024-03-07T06:48:17;101794.03;;;7.03;92.00
20696;BME280;10507;52.754;13.040;2024-03-07T06:50:44;101693.91;;;7.10;90.71
20696;BME280;10507;52.754;13.040;2024-03-07T06:53:10;101529.41;;;6.60;89.79
20696;BME280;10507;52.754;13.040;2024-03-07T06:55:37;101574.31;;;6.71;90.10
20696;BME280;10507;52.754;13.040;2024-03-07T06:58:05;101649.78;;;7.02;88.77
20696;BME280;10507;52.754;13.040;2024-03-07T07:00:32;101606.81;;;7.27;88.73
20696;BME280;10507;52.754;13.040;2024-03-07T07:03:01;101729.72;;;7.80;87.93
20696;BME280;10507;52.754;13.040;2024-03-07T07:05:30;101583.56;;;8.13;85.83
20696;BME280;10507;52.754;13.040;2024-03-07T07:07:56;101521.88;;;8.33;83.41
20696;BME280;10507;52.754;13.040;2024-03-07T07:10:23;101335.63;;;8.02;83.38
20696;BME280;10507;52.754;13.040;2024-03-07T07:12:50;101235.25;;;7.80;82.77
20696;BME280;10507;52.754;13.040;2024-03-07T07:15:21;101245.88;;;7.49;83.15
20696;BME280;10507;52.754;13.040;2024-03-07T07:17:49;101267.13;;;7.15;83.48
20696;BME280;10507;52.754;13.040;2024-03-07T07:20:16;101388.44;;;7.13;84.40
20696;BME280;10507;52.754;13.040;2024-03-07T07:22:44;101339.63;;;6.82;84.66
20696;BME280;10507;52.754;13.040;2024-03-07T07:25:12;101454.78;;;7.16;84.92
20696;BME280;10507;52.754;13.040;2024-03-07T07:27:41;101540.31;;;7.30;85.23
20696;BME280;10507;52.754;13.040;2024-03-07T07:30:10;101392.09;;;7.08;85.05
20696;BME280;10507;52.754;13.040;2024-03-07T07:32:38;101417.03;;;7.01;85.03
20696;BME280;10507;52.754;13.040;2024-03-07T07:35:06;101414.81;;;6.83;85.13
20696;BME280;10507;52.754;13.040;2024-03-07T07:37:37;101489.19;;;6.80;85.25
20696;BME280;10507;52.754;13.040;2024-03-07T07:40:04;101531.28;;;6.98;85.31
20696;BME280;10507;52.754;13.040;2024-03-07T07:42:33;101518.66;;;7.10;84.67
20696;BME280;10507;52.754;13.040;2024-03-07T07:45:00;101620.09;;;7.69;84.61
20696;BME280;10507;52.754;13.040;2024-03-07T07:47:27;101593.47;;;8.08;84.03
20696;BME280;10507;52.754;13.040;2024-03-07T07:49:55;101484.31;;;8.11;82.31
20696;BME280;10507;52.754;13.040;2024-03-07T07:52:22;101373.31;;;8.18;80.78
20696;BME280;10507;52.754;13.040;2024-03-07T07:54:48;101294.44;;;7.87;81.67
20696;BME280;10507;52.754;13.040;2024-03-07T07:57:15;101334.22;;;8.21;79.69
20696;BME280;10507;52.754;13.040;2024-03-07T07:59:42;101281.72;;;7.97;80.37
20696;BME280;10507;52.754;13.040;2024-03-07T08:02:08;101334.03;;;7.63;81.58
20696;BME280;10507;52.754;13.040;2024-03-07T08:04:36;101359.34;;;7.78;81.87
20696;BME280;10507;52.754;13.040;2024-03-07T08:07:04;101364.38;;;7.55;82.19
20696;BME280;10507;52.754;13.040;2024-03-07T08:09:32;101460.47;;;7.38;83.50
20696;BME280;10507;52.754;13.040;2024-03-07T08:11:59;101483.38;;;7.79;82.05
20696;BME280;10507;52.754;13.040;2024-03-07T08:14:27;101299.75;;;7.54;81.74
20696;BME280;10507;52.754;13.040;2024-03-07T08:16:55;101380.25;;;7.22;82.66
20696;BME280;10507;52.754;13.040;2024-03-07T08:19:21;101458.06;;;7.27;82.92
20696;BME280;10507;52.754;13.040;2024-03-07T08:21:48;101497.94;;;7.25;83.23
20696;BME280;10507;52.754;13.040;2024-03-07T08:24:16;101521.94;;;7.60;82.04
20696;BME280;10507;52.754;13.040;2024-03-07T08:26:42;101463.25;;;7.33;83.33
20696;BME280;10507;52.754;13.040;2024-03-07T08:29:09;101489.97;;;7.25;82.49
20696;BME280;10507;52.754;13.040;2024-03-07T08:31:37;101367.66;;;6.93;81.54
20696;BME280;10507;52.754;13.040;2024-03-07T08:34:03;101455.19;;;6.97;83.22
20696;BME280;10507;52.754;13.040;2024-03-07T08:36:30;101455.88;;;7.05;81.88
20696;BME280;10507;52.754;13.040;2024-03-07T08:38:57;101534.44;;;7.16;82.41
20696;BME280;10507;52.754;13.040;2024-03-07T08:41:25;101481.59;;;7.03;82.58
20696;BME280;10507;52.754;13.040;2024-03-07T08:43:51;101458.56;;;7.04;81.59
20696;BME280;10507;52.754;13.040;2024-03-07T08:46:18;101481.78;;;7.35;81.89
20696;BME280;10507;52.754;13.040;2024-03-07T08:48:44;101475.38;;;7.43;81.68
20696;BME280;10507;52.754;13.040;2024-03-07T08:51:11;101405.91;;;7.60;79.49
20696;BME280;10507;52.754;13.040;2024-03-07T08:53:38;101331.03;;;7.76;79.29
20696;BME280;10507;52.754;13.040;2024-03-07T08:56:05;101354.44;;;7.63;79.29
20696;BME280;10507;52.754;13.040;2024-03-07T08:58:33;101320.19;;;7.52;79.57
20696;BME280;10507;52.754;13.040;2024-03-07T09:01:00;101288.84;;;7.31;78.97
20696;BME280;10507;52.754;13.040;2024-03-07T09:03:26;101160.78;;;7.50;76.32
20696;BME280;10507;52.754;13.040;2024-03-07T09:05:53;101026.94;;;7.55;73.85
20696;BME280;10507;52.754;13.040;2024-03-07T09:08:20;100995.72;;;7.61;73.29
20696;BME280;10507;52.754;13.040;2024-03-07T09:10:47;100887.72;;;7.60;71.86
20696;BME280;10507;52.754;13.040;2024-03-07T09:13:14;100830.28;;;7.56;70.93
20696;BME280;10507;52.754;13.040;2024-03-07T09:15:42;100747.25;;;7.49;68.41
20696;BME280;10507;52.754;13.040;2024-03-07T09:18:08;100755.94;;;7.29;69.07
20696;BME280;10507;52.754;13.040;2024-03-07T09:20:35;100863.97;;;7.29;69.90
20696;BME280;10507;52.754;13.040;2024-03-07T09:23:02;100964.66;;;7.35;70.59
20696;BME280;10507;52.754;13.040;2024-03-07T09:25:28;100889.41;;;7.36;69.87
20696;BME280;10507;52.754;13.040;2024-03-07T09:27:58;100853.03;;;7.38;69.24
20696;BME280;10507;52.754;13.040;2024-03-07T09:30:25;100784.22;;;7.31;68.26
20696;BME280;10507;52.754;13.040;2024-03-07T09:32:54;100904.34;;;7.39;69.57
20696;BME280;10507;52.754;13.040;2024-03-07T09:35:21;100943.03;;;7.47;69.17
20696;BME280;10507;52.754;13.040;2024-03-07T09:37:48;100932.22;;;7.54;69.74
20696;BME280;10507;52.754;13.040;2024-03-07T09:40:14;100869.00;;;7.63;68.35
20696;BME280;10507;52.754;13.040;2024-03-07T09:42:43;100965.13;;;7.76;68.63
20696;BME280;10507;52.754;13.040;2024-03-07T09:45:17;100889.28;;;7.66;68.84
20696;BME280;10507;52.754;13.040;2024-03-07T09:47:45;100835.63;;;7.55;67.72
20696;BME280;10507;52.754;13.040;2024-03-07T09:50:16;100856.84;;;7.56;67.72
20696;BME280;10507;52.754;13.040;2024-03-07T09:52:45;100863.28;;;7.49;68.29
20696;BME280;10507;52.754;13.040;2024-03-07T09:55:12;100867.06;;;7.42;67.96
20696;BME280;10507;52.754;13.040;2024-03-07T09:57:39;100962.25;;;7.56;69.39
20696;BME280;10507;52.754;13.040;2024-03-07T10:00:09;100892.91;;;7.37;68.46
20696;BME280;10507;52.754;13.040;2024-03-07T10:02:44;100969.72;;;7.44;69.05
20696;BME280;10507;52.754;13.040;2024-03-07T10:05:14;100978.91;;;7.61;69.36
20696;BME280;10507;52.754;13.040;2024-03-07T10:07:42;100772.31;;;7.42;67.78
20696;BME280;10507;52.754;13.040;2024-03-07T10:10:09;100849.19;;;7.47;68.26
20696;BME280;10507;52.754;13.040;2024-03-07T10:12:37;100815.13;;;7.33;67.34
20696;BME280;10507;52.754;13.040;2024-03-07T10:15:05;100933.22;;;7.49;67.78
20696;BME280;10507;52.754;13.040;2024-03-07T10:17:35;100851.72;;;7.50;67.57
20696;BME280;10507;52.754;13.040;2024-03-07T10:20:02;100935.28;;;7.68;68.00
20696;BME280;10507;52.754;13.040;2024-03-07T10:22:30;100817.69;;;7.61;66.58
20696;BME280;10507;52.754;13.040;2024-03-07T10:24:57;100718.72;;;7.55;65.47
20696;BME280;10507;52.754;13.040;2024-03-07T10:27:26;100794.31;;;7.71;65.49
20696;BME280;10507;52.754;13.040;2024-03-07T10:29:53;100844.22;;;7.88;66.20
20696;BME280;10507;52.754;13.040;2024-03-07T10:32:21;100752.97;;;7.87;65.53
20696;BME280;10507;52.754;13.040;2024-03-07T10:34:50;100872.28;;;7.97;66.43
20696;BME280;10507;52.754;13.040;2024-03-07T10:37:17;100809.91;;;8.05;65.15
20696;BME280;10507;52.754;13.040;2024-03-07T10:39:47;100806.66;;;7.97;65.91
20696;BME280;10507;52.754;13.040;2024-03-07T10:42:17;100796.16;;;7.94;65.40
20696;BME280;10507;52.754;13.040;2024-03-07T10:44:45;100792.47;;;7.98;65.67
20696;BME280;10507;52.754;13.040;2024-03-07T10:47:16;100803.09;;;7.98;64.94
20696;BME280;10507;52.754;13.040;2024-03-07T10:49:53;100793.31;;;7.99;65.61
20696;BME280;10507;52.754;13.040;2024-03-07T10:52:29;100739.50;;;7.92;65.20
20696;BME280;10507;52.754;13.040;2024-03-07T10:55:08;100731.81;;;7.84;64.31
20696;BME280;10507;52.754;13.040;2024-03-07T10:57:49;100668.72;;;7.66;64.96
20696;BME280;10507;52.754;13.040;2024-03-07T11:00:19;100818.72;;;7.82;64.91
20696;BME280;10507;52.754;13.040;2024-03-07T11:03:01;100841.44;;;7.91;65.31
20696;BME280;10507;52.754;13.040;2024-03-07T11:05:33;100795.38;;;7.90;64.95
20696;BME280;10507;52.754;13.040;2024-03-07T11:08:01;100744.19;;;7.85;64.03
20696;BME280;10507;52.754;13.040;2024-03-07T11:10:34;100752.00;;;7.90;64.38
20696;BME280;10507;52.754;13.040;2024-03-07T11:13:02;100816.53;;;7.94;64.66
20696;BME280;10507;52.754;13.040;2024-03-07T11:15:29;100722.41;;;7.99;63.87
20696;BME280;10507;52.754;13.040;2024-03-07T11:17:57;100790.53;;;8.02;65.00
20696;BME280;10507;52.754;13.040;2024-03-07T11:20:26;100763.50;;;8.14;64.02
20696;BME280;10507;52.754;13.040;2024-03-07T11:22:54;100706.41;;;8.23;63.98
20696;BME280;10507;52.754;13.040;2024-03-07T11:25:21;100719.09;;;8.16;63.73
20696;BME280;10507;52.754;13.040;2024-03-07T11:27:55;100719.78;;;8.21;63.10
20696;BME280;10507;52.754;13.040;2024-03-07T11:30:22;100736.22;;;8.31;63.20
20696;BME280;10507;52.754;13.040;2024-03-07T11:32:49;100631.25;;;8.18;62.92
20696;BME280;10507;52.754;13.040;2024-03-07T11:35:18;100583.47;;;8.16;62.69
20696;BME280;10507;52.754;13.040;2024-03-07T11:37:56;100705.22;;;8.08;62.91
20696;BME280;10507;52.754;13.040;2024-03-07T11:40:44;100736.91;;;8.14;63.08
20696;BME280;10507;52.754;13.040;2024-03-07T11:43:15;100651.56;;;7.98;62.88
20696;BME280;10507;52.754;13.040;2024-03-07T11:45:42;100708.88;;;8.05;63.30
20696;BME280;10507;52.754;13.040;2024-03-07T11:48:17;100793.63;;;8.15;64.34
20696;BME280;10507;52.754;13.040;2024-03-07T11:50:45;100777.25;;;8.25;64.41
20696;BME280;10507;52.754;13.040;2024-03-07T11:53:12;100731.72;;;8.33;63.52
20696;BME280;10507;52.754;13.040;2024-03-07T11:55:40;100743.94;;;8.39;63.85
20696;BME280;10507;52.754;13.040;2024-03-07T11:58:12;100888.28;;;8.45;65.15
20696;BME280;10507;52.754;13.040;2024-03-07T12:00:41;100716.75;;;8.30;63.55
20696;BME280;10507;52.754;13.040;2024-03-07T12:03:10;100818.53;;;8.36;63.88
20696;BME280;10507;52.754;13.040;2024-03-07T12:08:14;100654.56;;;8.11;62.65
20696;BME280;10507;52.754;13.040;2024-03-07T12:10:41;100701.22;;;8.20;62.99
20696;BME280;10507;52.754;13.040;2024-03-07T12:13:09;100729.91;;;8.33;63.00
20696;BME280;10507;52.754;13.040;2024-03-07T12:15:38;100677.03;;;8.26;62.65
20696;BME280;10507;52.754;13.040;2024-03-07T12:18:07;100648.44;;;8.31;62.44
20696;BME280;10507;52.754;13.040;2024-03-07T12:20:40;100625.13;;;8.38;62.24
20696;BME280;10507;52.754;13.040;2024-03-07T12:23:08;100605.59;;;8.39;61.21
20696;BME280;10507;52.754;13.040;2024-03-07T12:25:37;100695.22;;;8.37;63.12
20696;BME280;10507;52.754;13.040;2024-03-07T12:28:06;100556.97;;;8.35;61.25
20696;BME280;10507;52.754;13.040;2024-03-07T12:30:47;100531.47;;;8.29;61.20
20696;BME280;10507;52.754;13.040;2024-03-07T12:33:17;100639.75;;;8.27;61.42
20696;BME280;10507;52.754;13.040;2024-03-07T12:35:45;100584.66;;;8.29;61.33
20696;BME280;10507;52.754;13.040;2024-03-07T12:38:13;100596.06;;;8.33;61.84
20696;BME280;10507;52.754;13.040;2024-03-07T12:40:42;100686.41;;;8.58;61.53
20696;BME280;10507;52.754;13.040;2024-03-07T12:43:16;100649.88;;;8.62;61.60
20696;BME280;10507;52.754;13.040;2024-03-07T12:45:44;100512.91;;;8.50;60.30
20696;BME280;10507;52.754;13.040;2024-03-07T12:48:11;100547.34;;;8.53;60.86
20696;BME280;10507;52.754;13.040;2024-03-07T12:50:41;100565.44;;;8.65;59.81
20696;BME280;10507;52.754;13.040;2024-03-07T12:53:07;100710.53;;;8.76;61.65